Terminal Aerodrome Forecast
Issued by NWS North Platte, NE

Home | Current Version | Previous Version | Text Only | Print | Product List | Glossary On
Versions: 1 2 3 4 5 6 7 8 9 10 11 12 13 14 15 16 17 18 19 20 21 22 23 24
714
FTUS43 KLBF 240603 AAA
TAFVTN
TAF AMD
KVTN 240603Z 2406/2506 36012G21KT P6SM -RA BKN008 BKN020 OVC090
     FM241000 36020G28KT P6SM VCSH OVC015
     FM241800 01019G26KT P6SM OVC040
     FM250000 01014G21KT P6SM BKN150
     FM250200 01009KT P6SM SCT200=

USA.gov is the U.S. government's official web portal to all federal, state and local government web resources and services.